Elizabeth, Louisiana
Current Conditions -  °F | °C
As of 3:35 AM on Saturday 29 Nov 2014 (Local Time) from KACP Reporting Station
Haze Haze  
Wind Chill: 53°   Ceiling: 500
Heat Index: 53°   Visibility: 5mi
Dew Point: 52°   Wind: 0mph
Humidity: 96%   Direction: NA
Pressure: 30.14"   Gusts: NA
Location:  30.87°N, 92.79°W
Report Text: KACP 290935Z AUTO 00000KT 5SM BR OVC005 12/11 A3014 RMK AO2 T01160110
Loading
Personal Weather Stations






























Interactive Weather Map New forecast layout! Learn more

10-Day Weather Forecast

Advertisements
Track Severe Weather on mobile